sensor_id;sensor_type;location;lat;lon;timestamp;temperature;humidity
45693;DHT22;31402;44.752;-0.374;2023-01-08T00:02:09;12.00;99.90
45693;DHT22;31402;44.752;-0.374;2023-01-08T00:04:34;12.00;99.90
45693;DHT22;31402;44.752;-0.374;2023-01-08T00:07:00;12.00;99.90
45693;DHT22;31402;44.752;-0.374;2023-01-08T00:09:26;12.00;99.90
45693;DHT22;31402;44.752;-0.374;2023-01-08T00:11:52;11.90;99.90
45693;DHT22;31402;44.752;-0.374;2023-01-08T00:14:18;11.90;99.90
45693;DHT22;31402;44.752;-0.374;2023-01-08T00:16:44;11.90;99.90
45693;DHT22;31402;44.752;-0.374;2023-01-08T00:19:12;11.90;99.90
45693;DHT22;31402;44.752;-0.374;2023-01-08T00:21:38;11.90;99.90
45693;DHT22;31402;44.752;-0.374;2023-01-08T00:24:04;11.90;99.90
45693;DHT22;31402;44.752;-0.374;2023-01-08T00:26:30;11.80;99.90
45693;DHT22;31402;44.752;-0.374;2023-01-08T00:28:55;11.90;99.90
45693;DHT22;31402;44.752;-0.374;2023-01-08T00:31:21;11.80;99.90
45693;DHT22;31402;44.752;-0.374;2023-01-08T00:33:47;11.90;99.90
45693;DHT22;31402;44.752;-0.374;2023-01-08T00:36:15;11.80;99.90
45693;DHT22;31402;44.752;-0.374;2023-01-08T00:38:42;11.80;99.90
45693;DHT22;31402;44.752;-0.374;2023-01-08T00:41:08;11.80;99.90
45693;DHT22;31402;44.752;-0.374;2023-01-08T00:43:34;11.80;99.90
45693;DHT22;31402;44.752;-0.374;2023-01-08T00:46:00;11.70;99.90
45693;DHT22;31402;44.752;-0.374;2023-01-08T00:48:26;11.80;99.90
45693;DHT22;31402;44.752;-0.374;2023-01-08T00:50:53;11.80;99.90
45693;DHT22;31402;44.752;-0.374;2023-01-08T00:53:19;11.70;99.90
45693;DHT22;31402;44.752;-0.374;2023-01-08T00:55:46;11.80;99.90
45693;DHT22;31402;44.752;-0.374;2023-01-08T00:58:14;11.80;99.90
45693;DHT22;31402;44.752;-0.374;2023-01-08T01:00:40;11.80;99.90
45693;DHT22;31402;44.752;-0.374;2023-01-08T01:03:06;11.80;99.90
45693;DHT22;31402;44.752;-0.374;2023-01-08T01:05:32;11.70;99.90
45693;DHT22;31402;44.752;-0.374;2023-01-08T01:07:57;11.70;99.90
45693;DHT22;31402;44.752;-0.374;2023-01-08T01:10:23;11.70;99.90
45693;DHT22;31402;44.752;-0.374;2023-01-08T01:12:49;11.70;99.90
45693;DHT22;31402;44.752;-0.374;2023-01-08T01:15:17;11.60;99.90
45693;DHT22;31402;44.752;-0.374;2023-01-08T01:17:44;11.70;99.90
45693;DHT22;31402;44.752;-0.374;2023-01-08T01:20:13;11.60;99.90
45693;DHT22;31402;44.752;-0.374;2023-01-08T01:22:40;11.60;99.90
45693;DHT22;31402;44.752;-0.374;2023-01-08T01:25:07;11.60;99.90
45693;DHT22;31402;44.752;-0.374;2023-01-08T01:27:33;11.60;99.90
45693;DHT22;31402;44.752;-0.374;2023-01-08T01:29:59;11.60;99.90
45693;DHT22;31402;44.752;-0.374;2023-01-08T01:32:25;11.50;99.90
45693;DHT22;31402;44.752;-0.374;2023-01-08T01:34:50;11.50;99.90
45693;DHT22;31402;44.752;-0.374;2023-01-08T01:37:16;11.50;99.90
45693;DHT22;31402;44.752;-0.374;2023-01-08T01:39:42;11.50;99.90
45693;DHT22;31402;44.752;-0.374;2023-01-08T01:42:16;11.50;99.90
45693;DHT22;31402;44.752;-0.374;2023-01-08T01:45:18;11.50;99.90
45693;DHT22;31402;44.752;-0.374;2023-01-08T01:47:58;11.50;99.90
45693;DHT22;31402;44.752;-0.374;2023-01-08T01:50:31;11.50;99.90
45693;DHT22;31402;44.752;-0.374;2023-01-08T01:55:34;11.50;99.90
45693;DHT22;31402;44.752;-0.374;2023-01-08T01:58:23;11.40;99.90
45693;DHT22;31402;44.752;-0.374;2023-01-08T02:00:50;11.40;99.90
45693;DHT22;31402;44.752;-0.374;2023-01-08T02:03:21;11.50;99.90
45693;DHT22;31402;44.752;-0.374;2023-01-08T02:06:15;11.40;99.90
45693;DHT22;31402;44.752;-0.374;2023-01-08T02:09:05;11.50;99.90
45693;DHT22;31402;44.752;-0.374;2023-01-08T02:14:07;11.40;99.90
45693;DHT22;31402;44.752;-0.374;2023-01-08T02:19:36;11.50;99.90
45693;DHT22;31402;44.752;-0.374;2023-01-08T02:22:13;11.40;99.90
45693;DHT22;31402;44.752;-0.374;2023-01-08T02:24:53;11.40;99.90
45693;DHT22;31402;44.752;-0.374;2023-01-08T02:27:20;11.40;99.90
45693;DHT22;31402;44.752;-0.374;2023-01-08T02:29:51;11.50;99.90
45693;DHT22;31402;44.752;-0.374;2023-01-08T02:32:17;11.40;99.90
45693;DHT22;31402;44.752;-0.374;2023-01-08T02:34:43;11.50;99.90
45693;DHT22;31402;44.752;-0.374;2023-01-08T02:37:09;11.50;99.90
45693;DHT22;31402;44.752;-0.374;2023-01-08T02:42:46;11.50;99.90
45693;DHT22;31402;44.752;-0.374;2023-01-08T02:50:39;11.30;99.90
45693;DHT22;31402;44.752;-0.374;2023-01-08T02:55:38;11.40;99.90
45693;DHT22;31402;44.752;-0.374;2023-01-08T02:58:05;11.40;99.90
45693;DHT22;31402;44.752;-0.374;2023-01-08T03:00:32;11.30;99.90
45693;DHT22;31402;44.752;-0.374;2023-01-08T03:03:24;11.30;99.90
45693;DHT22;31402;44.752;-0.374;2023-01-08T03:06:13;11.30;99.90
45693;DHT22;31402;44.752;-0.374;2023-01-08T03:08:41;11.30;99.90
45693;DHT22;31402;44.752;-0.374;2023-01-08T03:11:12;11.30;99.90
45693;DHT22;31402;44.752;-0.374;2023-01-08T03:16:21;11.30;99.90
45693;DHT22;31402;44.752;-0.374;2023-01-08T03:18:53;11.30;99.90
45693;DHT22;31402;44.752;-0.374;2023-01-08T03:21:21;11.20;99.90
45693;DHT22;31402;44.752;-0.374;2023-01-08T03:23:48;11.30;99.90
45693;DHT22;31402;44.752;-0.374;2023-01-08T03:26:19;11.30;99.90
45693;DHT22;31402;44.752;-0.374;2023-01-08T03:28:48;11.30;99.90
45693;DHT22;31402;44.752;-0.374;2023-01-08T03:31:16;11.30;99.90
45693;DHT22;31402;44.752;-0.374;2023-01-08T03:33:43;11.20;99.90
45693;DHT22;31402;44.752;-0.374;2023-01-08T03:36:14;11.20;99.90
45693;DHT22;31402;44.752;-0.374;2023-01-08T03:38:58;11.30;99.90
45693;DHT22;31402;44.752;-0.374;2023-01-08T03:41:27;11.30;99.90
45693;DHT22;31402;44.752;-0.374;2023-01-08T03:43:54;11.30;99.90
45693;DHT22;31402;44.752;-0.374;2023-01-08T03:46:23;11.30;99.90
45693;DHT22;31402;44.752;-0.374;2023-01-08T03:48:53;11.30;99.90
45693;DHT22;31402;44.752;-0.374;2023-01-08T03:51:20;11.30;99.90
45693;DHT22;31402;44.752;-0.374;2023-01-08T03:53:45;11.40;99.90
45693;DHT22;31402;44.752;-0.374;2023-01-08T03:56:12;11.30;99.90
45693;DHT22;31402;44.752;-0.374;2023-01-08T03:58:38;11.30;99.90
45693;DHT22;31402;44.752;-0.374;2023-01-08T04:01:04;11.30;99.90
45693;DHT22;31402;44.752;-0.374;2023-01-08T04:03:29;11.20;99.90
45693;DHT22;31402;44.752;-0.374;2023-01-08T04:05:58;11.30;99.90
45693;DHT22;31402;44.752;-0.374;2023-01-08T04:08:24;11.30;99.90
45693;DHT22;31402;44.752;-0.374;2023-01-08T04:10:50;11.30;99.90
45693;DHT22;31402;44.752;-0.374;2023-01-08T04:13:15;11.30;99.90
45693;DHT22;31402;44.752;-0.374;2023-01-08T04:15:49;11.30;99.90
45693;DHT22;31402;44.752;-0.374;2023-01-08T04:18:16;11.30;99.90
45693;DHT22;31402;44.752;-0.374;2023-01-08T04:20:46;11.30;99.90
45693;DHT22;31402;44.752;-0.374;2023-01-08T04:23:13;11.30;99.90
45693;DHT22;31402;44.752;-0.374;2023-01-08T04:25:39;11.30;99.90
45693;DHT22;31402;44.752;-0.374;2023-01-08T04:28:05;11.30;99.90
45693;DHT22;31402;44.752;-0.374;2023-01-08T04:30:31;11.30;99.90
45693;DHT22;31402;44.752;-0.374;2023-01-08T04:32:56;11.30;99.90
45693;DHT22;31402;44.752;-0.374;2023-01-08T04:35:22;11.20;99.90
45693;DHT22;31402;44.752;-0.374;2023-01-08T04:37:48;11.20;99.90
45693;DHT22;31402;44.752;-0.374;2023-01-08T04:40:14;11.30;99.90
45693;DHT22;31402;44.752;-0.374;2023-01-08T04:42:40;11.20;99.90
45693;DHT22;31402;44.752;-0.374;2023-01-08T04:45:06;11.30;99.90
45693;DHT22;31402;44.752;-0.374;2023-01-08T04:47:32;11.20;99.90
45693;DHT22;31402;44.752;-0.374;2023-01-08T04:49:58;11.20;99.90
45693;DHT22;31402;44.752;-0.374;2023-01-08T04:52:24;11.20;99.90
45693;DHT22;31402;44.752;-0.374;2023-01-08T04:54:49;11.20;99.90
45693;DHT22;31402;44.752;-0.374;2023-01-08T04:57:15;11.20;99.90
45693;DHT22;31402;44.752;-0.374;2023-01-08T04:59:41;11.30;99.90
45693;DHT22;31402;44.752;-0.374;2023-01-08T05:02:07;11.30;99.90
45693;DHT22;31402;44.752;-0.374;2023-01-08T05:04:33;11.30;99.90
45693;DHT22;31402;44.752;-0.374;2023-01-08T05:06:59;11.30;99.90
45693;DHT22;31402;44.752;-0.374;2023-01-08T05:09:25;11.30;99.90
45693;DHT22;31402;44.752;-0.374;2023-01-08T05:11:51;11.30;99.90
45693;DHT22;31402;44.752;-0.374;2023-01-08T05:14:16;11.30;99.90
45693;DHT22;31402;44.752;-0.374;2023-01-08T05:16:42;11.30;99.90
45693;DHT22;31402;44.752;-0.374;2023-01-08T05:19:08;11.30;99.90
45693;DHT22;31402;44.752;-0.374;2023-01-08T05:21:33;11.30;99.90
45693;DHT22;31402;44.752;-0.374;2023-01-08T05:23:59;11.20;99.90
45693;DHT22;31402;44.752;-0.374;2023-01-08T05:26:25;11.20;99.90
45693;DHT22;31402;44.752;-0.374;2023-01-08T05:28:51;11.30;99.90
45693;DHT22;31402;44.752;-0.374;2023-01-08T05:31:17;11.40;99.90
45693;DHT22;31402;44.752;-0.374;2023-01-08T05:33:43;11.50;99.90
45693;DHT22;31402;44.752;-0.374;2023-01-08T05:36:10;11.50;99.90
45693;DHT22;31402;44.752;-0.374;2023-01-08T05:38:37;11.50;99.90
45693;DHT22;31402;44.752;-0.374;2023-01-08T05:41:04;11.50;99.90
45693;DHT22;31402;44.752;-0.374;2023-01-08T05:43:30;11.50;99.90
45693;DHT22;31402;44.752;-0.374;2023-01-08T05:45:59;11.60;99.90
45693;DHT22;31402;44.752;-0.374;2023-01-08T05:48:29;11.60;99.90
45693;DHT22;31402;44.752;-0.374;2023-01-08T05:50:55;11.50;99.90
45693;DHT22;31402;44.752;-0.374;2023-01-08T05:53:21;11.60;99.90
45693;DHT22;31402;44.752;-0.374;2023-01-08T05:55:46;11.50;99.90
45693;DHT22;31402;44.752;-0.374;2023-01-08T05:58:12;11.40;99.90
45693;DHT22;31402;44.752;-0.374;2023-01-08T06:00:38;11.60;99.90
45693;DHT22;31402;44.752;-0.374;2023-01-08T06:03:05;11.50;99.90
45693;DHT22;31402;44.752;-0.374;2023-01-08T06:05:31;11.40;99.90
45693;DHT22;31402;44.752;-0.374;2023-01-08T06:07:58;11.50;99.90
45693;DHT22;31402;44.752;-0.374;2023-01-08T06:10:24;11.50;99.90
45693;DHT22;31402;44.752;-0.374;2023-01-08T06:12:50;11.40;99.90
45693;DHT22;31402;44.752;-0.374;2023-01-08T06:15:16;11.40;99.90
45693;DHT22;31402;44.752;-0.374;2023-01-08T06:17:42;11.40;99.90
45693;DHT22;31402;44.752;-0.374;2023-01-08T06:20:09;11.40;99.90
45693;DHT22;31402;44.752;-0.374;2023-01-08T06:22:35;11.40;99.90
45693;DHT22;31402;44.752;-0.374;2023-01-08T06:25:01;11.40;99.90
45693;DHT22;31402;44.752;-0.374;2023-01-08T06:27:28;11.40;99.90
45693;DHT22;31402;44.752;-0.374;2023-01-08T06:29:53;11.40;99.90
45693;DHT22;31402;44.752;-0.374;2023-01-08T06:32:19;11.40;99.90
45693;DHT22;31402;44.752;-0.374;2023-01-08T06:34:45;11.40;99.90
45693;DHT22;31402;44.752;-0.374;2023-01-08T06:37:11;11.40;99.90
45693;DHT22;31402;44.752;-0.374;2023-01-08T06:39:37;11.40;99.90
45693;DHT22;31402;44.752;-0.374;2023-01-08T06:42:03;11.40;99.90
45693;DHT22;31402;44.752;-0.374;2023-01-08T06:44:28;11.40;99.90
45693;DHT22;31402;44.752;-0.374;2023-01-08T06:46:54;11.40;99.90
45693;DHT22;31402;44.752;-0.374;2023-01-08T06:49:20;11.40;99.90
45693;DHT22;31402;44.752;-0.374;2023-01-08T06:51:47;11.40;99.90
45693;DHT22;31402;44.752;-0.374;2023-01-08T06:54:12;11.40;99.90
45693;DHT22;31402;44.752;-0.374;2023-01-08T06:56:38;11.40;99.90
45693;DHT22;31402;44.752;-0.374;2023-01-08T06:59:04;11.40;99.90
45693;DHT22;31402;44.752;-0.374;2023-01-08T07:01:30;11.40;99.90
45693;DHT22;31402;44.752;-0.374;2023-01-08T07:03:56;11.50;99.90
45693;DHT22;31402;44.752;-0.374;2023-01-08T07:06:22;11.50;99.90
45693;DHT22;31402;44.752;-0.374;2023-01-08T07:08:48;11.50;99.90
45693;DHT22;31402;44.752;-0.374;2023-01-08T07:11:14;11.60;99.90
45693;DHT22;31402;44.752;-0.374;2023-01-08T07:13:40;11.50;99.90
45693;DHT22;31402;44.752;-0.374;2023-01-08T07:16:11;11.50;99.90
45693;DHT22;31402;44.752;-0.374;2023-01-08T07:18:37;11.50;99.90
45693;DHT22;31402;44.752;-0.374;2023-01-08T07:21:05;11.40;99.90
45693;DHT22;31402;44.752;-0.374;2023-01-08T07:23:31;11.40;99.90
45693;DHT22;31402;44.752;-0.374;2023-01-08T07:26:01;11.40;99.90
45693;DHT22;31402;44.752;-0.374;2023-01-08T07:28:28;11.50;99.90
45693;DHT22;31402;44.752;-0.374;2023-01-08T07:30:54;11.40;99.90
45693;DHT22;31402;44.752;-0.374;2023-01-08T07:33:19;11.40;99.90
45693;DHT22;31402;44.752;-0.374;2023-01-08T07:35:53;11.30;99.90
45693;DHT22;31402;44.752;-0.374;2023-01-08T07:38:18;11.30;99.90
45693;DHT22;31402;44.752;-0.374;2023-01-08T07:40:44;11.40;99.90
45693;DHT22;31402;44.752;-0.374;2023-01-08T07:43:10;11.40;99.90
45693;DHT22;31402;44.752;-0.374;2023-01-08T07:45:39;11.40;99.90
45693;DHT22;31402;44.752;-0.374;2023-01-08T07:48:05;11.40;99.90
45693;DHT22;31402;44.752;-0.374;2023-01-08T07:50:31;11.40;99.90
45693;DHT22;31402;44.752;-0.374;2023-01-08T07:52:59;11.40;99.90
45693;DHT22;31402;44.752;-0.374;2023-01-08T07:55:26;11.40;99.90
45693;DHT22;31402;44.752;-0.374;2023-01-08T07:57:53;11.40;99.90
45693;DHT22;31402;44.752;-0.374;2023-01-08T08:00:19;11.40;99.90
45693;DHT22;31402;44.752;-0.374;2023-01-08T08:02:44;11.40;99.90
45693;DHT22;31402;44.752;-0.374;2023-01-08T08:05:10;11.30;99.90
45693;DHT22;31402;44.752;-0.374;2023-01-08T08:07:36;11.30;99.90
45693;DHT22;31402;44.752;-0.374;2023-01-08T08:10:03;11.40;99.90
45693;DHT22;31402;44.752;-0.374;2023-01-08T08:12:29;11.30;99.90
45693;DHT22;31402;44.752;-0.374;2023-01-08T08:14:55;11.30;99.90
45693;DHT22;31402;44.752;-0.374;2023-01-08T08:17:21;11.30;99.90
45693;DHT22;31402;44.752;-0.374;2023-01-08T08:19:47;11.30;99.90
45693;DHT22;31402;44.752;-0.374;2023-01-08T08:22:13;11.20;99.90
45693;DHT22;31402;44.752;-0.374;2023-01-08T08:24:38;11.20;99.90
45693;DHT22;31402;44.752;-0.374;2023-01-08T08:27:05;11.30;99.90
45693;DHT22;31402;44.752;-0.374;2023-01-08T08:29:31;11.30;99.90
45693;DHT22;31402;44.752;-0.374;2023-01-08T08:31:57;11.30;99.90
45693;DHT22;31402;44.752;-0.374;2023-01-08T08:34:23;11.30;99.90
45693;DHT22;31402;44.752;-0.374;2023-01-08T08:36:49;11.30;99.90
45693;DHT22;31402;44.752;-0.374;2023-01-08T08:39:15;11.20;99.90
45693;DHT22;31402;44.752;-0.374;2023-01-08T08:41:40;11.30;99.90
45693;DHT22;31402;44.752;-0.374;2023-01-08T08:44:09;11.30;99.90
45693;DHT22;31402;44.752;-0.374;2023-01-08T08:46:35;11.30;99.90
45693;DHT22;31402;44.752;-0.374;2023-01-08T08:49:01;11.30;99.90
45693;DHT22;31402;44.752;-0.374;2023-01-08T08:51:26;11.30;99.90
45693;DHT22;31402;44.752;-0.374;2023-01-08T08:53:52;11.30;99.90
45693;DHT22;31402;44.752;-0.374;2023-01-08T08:56:18;11.30;99.90
45693;DHT22;31402;44.752;-0.374;2023-01-08T08:58:44;11.30;99.90
45693;DHT22;31402;44.752;-0.374;2023-01-08T09:01:10;11.30;99.90
45693;DHT22;31402;44.752;-0.374;2023-01-08T09:03:36;11.30;99.90
45693;DHT22;31402;44.752;-0.374;2023-01-08T09:06:02;11.30;99.90
45693;DHT22;31402;44.752;-0.374;2023-01-08T09:08:28;11.30;99.90
45693;DHT22;31402;44.752;-0.374;2023-01-08T09:10:54;11.30;99.90
45693;DHT22;31402;44.752;-0.374;2023-01-08T09:13:19;11.40;99.90
45693;DHT22;31402;44.752;-0.374;2023-01-08T09:15:45;11.40;99.90
45693;DHT22;31402;44.752;-0.374;2023-01-08T09:18:11;11.40;99.90
45693;DHT22;31402;44.752;-0.374;2023-01-08T09:20:37;11.40;99.90
45693;DHT22;31402;44.752;-0.374;2023-01-08T09:23:02;11.40;99.90
45693;DHT22;31402;44.752;-0.374;2023-01-08T09:25:29;11.30;99.90
45693;DHT22;31402;44.752;-0.374;2023-01-08T09:28:07;11.40;99.90
45693;DHT22;31402;44.752;-0.374;2023-01-08T09:30:33;11.40;99.90
45693;DHT22;31402;44.752;-0.374;2023-01-08T09:33:00;11.30;99.90
45693;DHT22;31402;44.752;-0.374;2023-01-08T09:35:27;11.30;99.90
45693;DHT22;31402;44.752;-0.374;2023-01-08T09:37:53;11.40;99.90
45693;DHT22;31402;44.752;-0.374;2023-01-08T09:40:27;11.40;99.90
45693;DHT22;31402;44.752;-0.374;2023-01-08T09:42:57;11.40;99.90
45693;DHT22;31402;44.752;-0.374;2023-01-08T09:45:27;11.40;99.90
45693;DHT22;31402;44.752;-0.374;2023-01-08T09:47:55;11.40;99.90
45693;DHT22;31402;44.752;-0.374;2023-01-08T09:50:25;11.30;99.90
45693;DHT22;31402;44.752;-0.374;2023-01-08T09:52:52;11.40;99.90
45693;DHT22;31402;44.752;-0.374;2023-01-08T09:55:18;11.40;99.90
45693;DHT22;31402;44.752;-0.374;2023-01-08T09:57:45;11.40;99.90
45693;DHT22;31402;44.752;-0.374;2023-01-08T10:00:17;11.40;99.90
45693;DHT22;31402;44.752;-0.374;2023-01-08T10:02:44;11.50;99.90
45693;DHT22;31402;44.752;-0.374;2023-01-08T10:05:16;11.50;99.90
45693;DHT22;31402;44.752;-0.374;2023-01-08T10:07:42;11.50;99.90
45693;DHT22;31402;44.752;-0.374;2023-01-08T10:10:29;11.50;99.90
45693;DHT22;31402;44.752;-0.374;2023-01-08T10:12:55;11.60;99.90
45693;DHT22;31402;44.752;-0.374;2023-01-08T10:15:21;11.50;99.90
45693;DHT22;31402;44.752;-0.374;2023-01-08T10:17:59;11.60;99.90
45693;DHT22;31402;44.752;-0.374;2023-01-08T10:20:29;11.70;99.90
45693;DHT22;31402;44.752;-0.374;2023-01-08T10:22:55;11.60;99.90
45693;DHT22;31402;44.752;-0.374;2023-01-08T10:25:25;11.70;99.90
45693;DHT22;31402;44.752;-0.374;2023-01-08T10:28:02;11.70;99.90
45693;DHT22;31402;44.752;-0.374;2023-01-08T10:30:34;11.70;99.90
45693;DHT22;31402;44.752;-0.374;2023-01-08T10:33:04;11.60;99.90
45693;DHT22;31402;44.752;-0.374;2023-01-08T10:35:34;11.80;99.90
45693;DHT22;31402;44.752;-0.374;2023-01-08T10:38:00;11.80;99.90
45693;DHT22;31402;44.752;-0.374;2023-01-08T10:40:36;11.70;99.90
45693;DHT22;31402;44.752;-0.374;2023-01-08T10:43:18;11.70;99.90
45693;DHT22;31402;44.752;-0.374;2023-01-08T10:45:55;11.70;99.90
45693;DHT22;31402;44.752;-0.374;2023-01-08T10:48:26;11.80;99.90
45693;DHT22;31402;44.752;-0.374;2023-01-08T10:51:04;11.80;99.90
45693;DHT22;31402;44.752;-0.374;2023-01-08T10:53:30;11.70;99.90
45693;DHT22;31402;44.752;-0.374;2023-01-08T10:56:00;11.70;99.90
45693;DHT22;31402;44.752;-0.374;2023-01-08T10:58:27;11.70;99.90
45693;DHT22;31402;44.752;-0.374;2023-01-08T11:00:54;11.60;99.90
45693;DHT22;31402;44.752;-0.374;2023-01-08T11:03:31;11.60;99.90
45693;DHT22;31402;44.752;-0.374;2023-01-08T11:05:57;11.60;99.90
45693;DHT22;31402;44.752;-0.374;2023-01-08T11:08:23;11.60;99.90
45693;DHT22;31402;44.752;-0.374;2023-01-08T11:10:57;11.60;99.90
45693;DHT22;31402;44.752;-0.374;2023-01-08T11:13:24;11.60;99.90
45693;DHT22;31402;44.752;-0.374;2023-01-08T11:16:17;11.60;99.90
45693;DHT22;31402;44.752;-0.374;2023-01-08T11:18:48;11.60;99.90
45693;DHT22;31402;44.752;-0.374;2023-01-08T11:21:26;11.60;99.90
45693;DHT22;31402;44.752;-0.374;2023-01-08T11:24:14;11.60;99.90
45693;DHT22;31402;44.752;-0.374;2023-01-08T11:26:45;11.60;99.90
45693;DHT22;31402;44.752;-0.374;2023-01-08T11:29:37;11.60;99.90
45693;DHT22;31402;44.752;-0.374;2023-01-08T11:34:51;11.70;99.90
45693;DHT22;31402;44.752;-0.374;2023-01-08T11:37:25;11.70;99.90
45693;DHT22;31402;44.752;-0.374;2023-01-08T11:39:52;11.70;99.90
45693;DHT22;31402;44.752;-0.374;2023-01-08T11:53:37;11.80;99.90
45693;DHT22;31402;44.752;-0.374;2023-01-08T11:59:17;11.80;99.90
45693;DHT22;31402;44.752;-0.374;2023-01-08T12:04:48;11.80;99.90
45693;DHT22;31402;44.752;-0.374;2023-01-08T12:10:53;11.80;99.90
45693;DHT22;31402;44.752;-0.374;2023-01-08T12:21:15;11.90;99.90
45693;DHT22;31402;44.752;-0.374;2023-01-08T12:24:07;11.90;99.90
45693;DHT22;31402;44.752;-0.374;2023-01-08T12:35:08;11.80;99.90
45693;DHT22;31402;44.752;-0.374;2023-01-08T12:38:03;11.80;99.90
45693;DHT22;31402;44.752;-0.374;2023-01-08T12:40:43;11.90;99.90
45693;DHT22;31402;44.752;-0.374;2023-01-08T12:43:23;11.90;99.90
45693;DHT22;31402;44.752;-0.374;2023-01-08T12:45:53;11.90;99.90
45693;DHT22;31402;44.752;-0.374;2023-01-08T12:48:25;11.90;99.90
45693;DHT22;31402;44.752;-0.374;2023-01-08T12:53:57;12.00;99.90
45693;DHT22;31402;44.752;-0.374;2023-01-08T12:59:31;12.10;99.90
45693;DHT22;31402;44.752;-0.374;2023-01-08T13:04:46;12.10;99.90
45693;DHT22;31402;44.752;-0.374;2023-01-08T13:07:28;12.10;99.90
45693;DHT22;31402;44.752;-0.374;2023-01-08T13:10:05;12.20;99.90
45693;DHT22;31402;44.752;-0.374;2023-01-08T13:12:39;12.20;99.90
45693;DHT22;31402;44.752;-0.374;2023-01-08T13:15:19;12.30;99.90
45693;DHT22;31402;44.752;-0.374;2023-01-08T13:17:50;12.30;99.90
45693;DHT22;31402;44.752;-0.374;2023-01-08T13:20:23;12.30;99.90
45693;DHT22;31402;44.752;-0.374;2023-01-08T13:22:59;12.40;99.90
45693;DHT22;31402;44.752;-0.374;2023-01-08T13:25:33;12.40;99.90
45693;DHT22;31402;44.752;-0.374;2023-01-08T13:28:00;12.40;99.90
45693;DHT22;31402;44.752;-0.374;2023-01-08T13:30:37;12.40;99.90
45693;DHT22;31402;44.752;-0.374;2023-01-08T13:33:27;12.40;99.90
45693;DHT22;31402;44.752;-0.374;2023-01-08T13:38:40;12.50;99.90
45693;DHT22;31402;44.752;-0.374;2023-01-08T13:41:25;12.50;99.90
45693;DHT22;31402;44.752;-0.374;2023-01-08T13:44:03;12.50;99.90
45693;DHT22;31402;44.752;-0.374;2023-01-08T13:46:32;12.50;99.90
45693;DHT22;31402;44.752;-0.374;2023-01-08T13:49:04;12.50;99.90
45693;DHT22;31402;44.752;-0.374;2023-01-08T13:56:40;12.60;99.90
45693;DHT22;31402;44.752;-0.374;2023-01-08T13:59:24;12.70;99.90
45693;DHT22;31402;44.752;-0.374;2023-01-08T14:01:54;12.70;99.90
45693;DHT22;31402;44.752;-0.374;2023-01-08T14:04:23;12.70;99.90
45693;DHT22;31402;44.752;-0.374;2023-01-08T14:06:50;12.80;99.90
45693;DHT22;31402;44.752;-0.374;2023-01-08T14:09:23;12.80;99.90
45693;DHT22;31402;44.752;-0.374;2023-01-08T14:11:52;12.90;99.90
45693;DHT22;31402;44.752;-0.374;2023-01-08T14:14:21;12.90;99.90
45693;DHT22;31402;44.752;-0.374;2023-01-08T14:16:49;12.90;99.90
45693;DHT22;31402;44.752;-0.374;2023-01-08T14:19:23;12.90;99.90
45693;DHT22;31402;44.752;-0.374;2023-01-08T14:21:53;13.00;99.90
45693;DHT22;31402;44.752;-0.374;2023-01-08T14:24:21;13.00;99.90
45693;DHT22;31402;44.752;-0.374;2023-01-08T14:26:53;12.90;99.90
45693;DHT22;31402;44.752;-0.374;2023-01-08T14:29:21;13.00;99.90
45693;DHT22;31402;44.752;-0.374;2023-01-08T14:31:56;13.00;99.90
45693;DHT22;31402;44.752;-0.374;2023-01-08T14:34:24;13.10;99.90
45693;DHT22;31402;44.752;-0.374;2023-01-08T14:36:53;13.20;99.90
45693;DHT22;31402;44.752;-0.374;2023-01-08T14:39:25;13.20;99.90
45693;DHT22;31402;44.752;-0.374;2023-01-08T14:42:03;13.10;99.90
45693;DHT22;31402;44.752;-0.374;2023-01-08T14:44:55;13.20;99.90
45693;DHT22;31402;44.752;-0.374;2023-01-08T14:47:28;13.20;99.90
45693;DHT22;31402;44.752;-0.374;2023-01-08T14:49:55;13.10;99.90
45693;DHT22;31402;44.752;-0.374;2023-01-08T14:52:21;13.40;99.90
45693;DHT22;31402;44.752;-0.374;2023-01-08T14:54:51;13.30;99.90
45693;DHT22;31402;44.752;-0.374;2023-01-08T14:57:18;13.40;99.90
45693;DHT22;31402;44.752;-0.374;2023-01-08T14:59:52;13.30;99.90
45693;DHT22;31402;44.752;-0.374;2023-01-08T15:02:31;13.40;99.90
45693;DHT22;31402;44.752;-0.374;2023-01-08T15:08:02;13.50;99.90
45693;DHT22;31402;44.752;-0.374;2023-01-08T15:10:36;13.70;99.90
45693;DHT22;31402;44.752;-0.374;2023-01-08T15:13:02;13.70;99.90
45693;DHT22;31402;44.752;-0.374;2023-01-08T15:15:35;13.60;99.90
45693;DHT22;31402;44.752;-0.374;2023-01-08T15:18:06;13.50;99.90
45693;DHT22;31402;44.752;-0.374;2023-01-08T15:20:34;13.60;99.90
45693;DHT22;31402;44.752;-0.374;2023-01-08T15:23:00;13.60;99.90
45693;DHT22;31402;44.752;-0.374;2023-01-08T15:25:27;13.70;99.90
45693;DHT22;31402;44.752;-0.374;2023-01-08T15:28:02;13.80;99.90
45693;DHT22;31402;44.752;-0.374;2023-01-08T15:30:32;14.00;99.90
45693;DHT22;31402;44.752;-0.374;2023-01-08T15:33:25;13.90;99.90
45693;DHT22;31402;44.752;-0.374;2023-01-08T15:35:51;14.00;99.90
45693;DHT22;31402;44.752;-0.374;2023-01-08T15:38:18;13.90;99.90
45693;DHT22;31402;44.752;-0.374;2023-01-08T15:40:48;14.00;99.90
45693;DHT22;31402;44.752;-0.374;2023-01-08T15:43:16;14.00;99.90
45693;DHT22;31402;44.752;-0.374;2023-01-08T15:45:45;14.00;99.90
45693;DHT22;31402;44.752;-0.374;2023-01-08T15:48:11;14.10;99.90
45693;DHT22;31402;44.752;-0.374;2023-01-08T15:50:39;14.20;99.90
45693;DHT22;31402;44.752;-0.374;2023-01-08T15:53:09;14.30;99.90
45693;DHT22;31402;44.752;-0.374;2023-01-08T15:55:37;14.30;99.90
45693;DHT22;31402;44.752;-0.374;2023-01-08T15:58:03;14.40;99.90
45693;DHT22;31402;44.752;-0.374;2023-01-08T16:00:30;14.40;99.90
45693;DHT22;31402;44.752;-0.374;2023-01-08T16:02:57;14.20;99.90
45693;DHT22;31402;44.752;-0.374;2023-01-08T16:05:28;14.40;99.90
45693;DHT22;31402;44.752;-0.374;2023-01-08T16:07:54;14.30;99.90
45693;DHT22;31402;44.752;-0.374;2023-01-08T16:10:19;14.50;99.90
45693;DHT22;31402;44.752;-0.374;2023-01-08T16:12:45;14.60;99.90
45693;DHT22;31402;44.752;-0.374;2023-01-08T16:15:13;14.50;99.90
45693;DHT22;31402;44.752;-0.374;2023-01-08T16:17:39;14.50;99.90
45693;DHT22;31402;44.752;-0.374;2023-01-08T16:20:07;14.60;99.90
45693;DHT22;31402;44.752;-0.374;2023-01-08T16:22:33;14.60;99.90
45693;DHT22;31402;44.752;-0.374;2023-01-08T16:24:58;14.50;99.90
45693;DHT22;31402;44.752;-0.374;2023-01-08T16:27:24;14.50;99.90
45693;DHT22;31402;44.752;-0.374;2023-01-08T16:29:50;14.60;99.90
45693;DHT22;31402;44.752;-0.374;2023-01-08T16:32:16;14.60;99.90
45693;DHT22;31402;44.752;-0.374;2023-01-08T16:34:42;14.50;99.90
45693;DHT22;31402;44.752;-0.374;2023-01-08T16:37:08;14.60;99.90
45693;DHT22;31402;44.752;-0.374;2023-01-08T16:39:33;14.50;99.90
45693;DHT22;31402;44.752;-0.374;2023-01-08T16:41:59;14.50;99.90
45693;DHT22;31402;44.752;-0.374;2023-01-08T16:44:26;14.40;99.90
45693;DHT22;31402;44.752;-0.374;2023-01-08T16:46:53;14.50;99.90
45693;DHT22;31402;44.752;-0.374;2023-01-08T16:49:19;14.40;99.90